West Delhi, New York
Current Conditions -  °F | °C
As of 7:55 PM on Wednesday 22 Oct 2014 (Local Time) from KMSV Reporting Station
Overcast Overcast  
Wind Chill:   Ceiling: 3900
Heat Index:   Visibility: 10mi
Dew Point:   Wind: 15mph
Humidity: 93%   Direction: 10°N
Pressure: 29.92"   Gusts: 21mph
Location:  42.3065°N, 74.9298°W
Report Text: KMSV 222355Z AUTO 01013G18KT 10SM OVC039 08/07 A2992 RMK AO1 60002 10110 20080 401100080 57007
Loading
Personal Weather Stations






























Interactive Weather Map
Tropical Storm Tracking
New forecast layout! Learn more

10-Day Weather Forecast

Advertisements
Track Severe Weather on mobile